createdAt,value
2017-09-07T00:01:04.046Z,0
2017-09-07T00:02:13.313Z,0
2017-09-07T00:03:22.285Z,0
2017-09-07T00:04:31.549Z,0
2017-09-07T00:05:40.199Z,0
2017-09-07T00:06:49.544Z,0
2017-09-07T00:07:58.515Z,0
2017-09-07T00:09:07.479Z,0
2017-09-07T00:10:17.083Z,0
2017-09-07T00:11:26.032Z,0
2017-09-07T00:12:34.996Z,0
2017-09-07T00:13:44.302Z,0
2017-09-07T00:14:53.589Z,0
2017-09-07T00:16:02.564Z,0
2017-09-07T00:17:11.232Z,0
2017-09-07T00:18:20.203Z,0
2017-09-07T00:19:29.155Z,0
2017-09-07T00:20:38.110Z,0
2017-09-07T00:21:47.079Z,0
2017-09-07T00:22:56.350Z,0
2017-09-07T00:24:05.624Z,0
2017-09-07T00:25:14.897Z,0
2017-09-07T00:26:23.845Z,0
2017-09-07T00:27:32.807Z,0
2017-09-07T00:28:41.766Z,0
2017-09-07T00:29:50.411Z,0
2017-09-07T00:30:59.401Z,0
2017-09-07T00:32:08.365Z,0
2017-09-07T00:33:17.967Z,0
2017-09-07T00:34:26.930Z,0
2017-09-07T00:35:36.212Z,0
2017-09-07T00:36:45.817Z,0
2017-09-07T00:37:54.772Z,0
2017-09-07T00:39:03.745Z,0
2017-09-07T00:40:12.395Z,0
2017-09-07T00:41:21.664Z,0
2017-09-07T00:42:30.936Z,0
2017-09-07T00:43:39.578Z,0
2017-09-07T00:44:48.229Z,0
2017-09-07T00:45:57.194Z,0
2017-09-07T00:47:05.832Z,0
2017-09-07T00:48:15.113Z,0
2017-09-07T00:49:24.063Z,0
2017-09-07T00:50:33.026Z,0
2017-09-07T00:51:41.994Z,0
2017-09-07T00:52:50.961Z,0
2017-09-07T00:53:59.611Z,0
2017-09-07T00:55:08.570Z,0
2017-09-07T00:56:17.217Z,0
2017-09-07T00:57:25.857Z,0
2017-09-07T00:58:34.810Z,0
2017-09-07T00:59:43.768Z,0
2017-09-07T01:00:52.405Z,0
2017-09-07T01:02:01.671Z,0
2017-09-07T01:03:10.331Z,0
2017-09-07T01:04:19.310Z,0
2017-09-07T01:05:28.594Z,0
2017-09-07T01:06:38.212Z,0
2017-09-07T01:07:46.851Z,0
2017-09-07T01:08:55.503Z,0
2017-09-07T01:10:04.149Z,0
2017-09-07T01:11:13.745Z,0
2017-09-07T01:12:23.021Z,0
2017-09-07T01:13:31.992Z,0
2017-09-07T01:14:41.590Z,0
2017-09-07T01:15:51.496Z,0
2017-09-07T01:17:00.779Z,0
2017-09-07T01:18:09.744Z,0
2017-09-07T01:19:18.699Z,0
2017-09-07T01:20:28.006Z,0
2017-09-07T01:21:36.966Z,0
2017-09-07T01:22:45.931Z,0
2017-09-07T01:23:54.909Z,0
2017-09-07T01:25:04.504Z,0
2017-09-07T01:26:13.466Z,0
2017-09-07T01:27:22.760Z,0
2017-09-07T01:28:32.037Z,0
2017-09-07T01:29:41.332Z,0
2017-09-07T01:30:50.285Z,0
2017-09-07T01:31:59.871Z,0
2017-09-07T01:33:08.517Z,0
2017-09-07T01:34:17.183Z,0
2017-09-07T01:35:26.152Z,0
2017-09-07T01:36:35.442Z,0
2017-09-07T01:37:44.715Z,0
2017-09-07T01:38:53.680Z,0
2017-09-07T01:40:02.968Z,0
2017-09-07T01:41:11.929Z,0
2017-09-07T01:42:20.882Z,0
2017-09-07T01:43:29.539Z,0
2017-09-07T01:44:38.969Z,0
2017-09-07T01:45:48.235Z,0
2017-09-07T01:46:56.874Z,0
2017-09-07T01:48:06.825Z,0
2017-09-07T01:49:15.479Z,0
2017-09-07T01:50:24.747Z,0
2017-09-07T01:51:34.340Z,0
2017-09-07T01:52:43.619Z,0
2017-09-07T01:53:52.263Z,0
2017-09-07T01:55:01.230Z,0
2017-09-07T01:56:10.815Z,0
2017-09-07T01:57:19.783Z,0
2017-09-07T01:58:29.064Z,0
2017-09-07T01:59:38.350Z,0
2017-09-07T02:00:47.651Z,0
2017-09-07T02:01:56.931Z,0
2017-09-07T02:03:06.203Z,0
2017-09-07T02:04:15.802Z,0
2017-09-07T02:05:24.765Z,0
2017-09-07T02:06:33.416Z,0
2017-09-07T02:07:42.683Z,0
2017-09-07T02:08:51.320Z,0
2017-09-07T02:10:00.290Z,0
2017-09-07T02:11:09.257Z,0
2017-09-07T02:12:18.222Z,0
2017-09-07T02:13:27.810Z,0
2017-09-07T02:14:36.451Z,0
2017-09-07T02:15:45.414Z,0
2017-09-07T02:16:54.431Z,0
2017-09-07T02:18:04.034Z,0
2017-09-07T02:19:12.672Z,0
2017-09-07T02:20:21.626Z,0
2017-09-07T02:21:30.584Z,0
2017-09-07T02:22:39.537Z,0
2017-09-07T02:23:48.818Z,0
2017-09-07T02:24:57.799Z,0
2017-09-07T02:26:07.075Z,0
2017-09-07T02:27:16.038Z,0
2017-09-07T02:28:24.674Z,0
2017-09-07T02:29:33.969Z,0
2017-09-07T02:30:42.936Z,0
2017-09-07T02:31:51.926Z,0
2017-09-07T02:33:00.564Z,0
2017-09-07T02:34:09.833Z,0
2017-09-07T02:35:19.111Z,0
2017-09-07T02:36:28.425Z,0
2017-09-07T02:37:37.383Z,0
2017-09-07T02:38:46.360Z,0
2017-09-07T02:39:55.002Z,0
2017-09-07T02:41:03.975Z,0
2017-09-07T02:42:12.945Z,0
2017-09-07T02:43:22.210Z,0
2017-09-07T02:44:31.799Z,0
2017-09-07T02:45:40.762Z,0
2017-09-07T02:46:50.046Z,0
2017-09-07T02:47:59.003Z,0
2017-09-07T02:49:08.266Z,0
2017-09-07T02:50:16.915Z,0
2017-09-07T02:51:25.879Z,0
2017-09-07T02:52:34.845Z,0
2017-09-07T02:53:44.135Z,0
2017-09-07T02:54:53.722Z,0
2017-09-07T02:56:02.375Z,0
2017-09-07T02:57:11.343Z,0
2017-09-07T02:58:20.613Z,0
2017-09-07T02:59:30.224Z,0
2017-09-07T03:00:39.508Z,0
2017-09-07T03:01:48.777Z,0
2017-09-07T03:02:57.424Z,0
2017-09-07T03:04:06.077Z,0
2017-09-07T03:05:15.095Z,0
2017-09-07T03:06:24.057Z,0
2017-09-07T03:07:32.706Z,0
2017-09-07T03:08:42.307Z,0
2017-09-07T03:09:51.279Z,0
2017-09-07T03:11:00.239Z,0
2017-09-07T03:12:09.196Z,0
2017-09-07T03:13:18.470Z,0
2017-09-07T03:14:27.809Z,0
2017-09-07T03:15:37.405Z,0
2017-09-07T03:16:46.693Z,0
2017-09-07T03:17:55.972Z,0
2017-09-07T03:19:04.936Z,0
2017-09-07T03:20:13.583Z,0
2017-09-07T03:21:22.229Z,0
2017-09-07T03:22:31.568Z,0
2017-09-07T03:23:40.234Z,0
2017-09-07T03:24:49.832Z,0
2017-09-07T03:25:58.786Z,0
2017-09-07T03:27:07.481Z,0
2017-09-07T03:28:16.125Z,0
2017-09-07T03:29:25.090Z,0
2017-09-07T03:30:34.072Z,0
2017-09-07T03:31:43.337Z,0
2017-09-07T03:32:52.298Z,0
2017-09-07T03:34:01.569Z,0
2017-09-07T03:35:10.230Z,0
2017-09-07T03:36:19.190Z,0
2017-09-07T03:37:28.459Z,0
2017-09-07T03:38:37.727Z,0
2017-09-07T03:39:46.386Z,0
2017-09-07T03:40:55.343Z,0
2017-09-07T03:42:03.988Z,0
2017-09-07T03:43:12.693Z,0
2017-09-07T03:44:21.972Z,0
2017-09-07T03:45:31.246Z,0
2017-09-07T03:46:40.523Z,0
2017-09-07T03:47:49.805Z,0
2017-09-07T03:48:59.073Z,0
2017-09-07T03:50:08.051Z,0
2017-09-07T03:51:17.959Z,0
2017-09-07T03:52:26.601Z,0
2017-09-07T03:53:35.254Z,0
2017-09-07T03:54:44.529Z,0
2017-09-07T03:55:53.168Z,0
2017-09-07T03:57:02.758Z,0
2017-09-07T03:58:11.409Z,0
2017-09-07T03:59:20.696Z,0
2017-09-07T04:00:29.659Z,0
2017-09-07T04:01:39.238Z,0
2017-09-07T04:02:48.509Z,0
2017-09-07T04:03:57.786Z,0
2017-09-07T04:05:06.742Z,0
2017-09-07T04:06:15.384Z,0
2017-09-07T04:07:24.664Z,0
2017-09-07T04:08:33.618Z,0
2017-09-07T04:09:42.577Z,0
2017-09-07T04:10:52.154Z,0
2017-09-07T04:12:01.114Z,0
2017-09-07T04:13:10.395Z,0
2017-09-07T04:14:19.986Z,0
2017-09-07T04:15:29.274Z,0
2017-09-07T04:16:37.918Z,0
2017-09-07T04:17:46.562Z,0
2017-09-07T04:18:55.525Z,0
2017-09-07T04:20:04.473Z,0
2017-09-07T04:21:13.758Z,0
2017-09-07T04:22:23.021Z,0
2017-09-07T04:23:31.670Z,0
2017-09-07T04:24:40.626Z,0
2017-09-07T04:25:49.605Z,0
2017-09-07T04:26:58.560Z,0
2017-09-07T04:28:07.197Z,0
2017-09-07T04:29:16.159Z,0
2017-09-07T04:30:24.803Z,0
2017-09-07T04:31:33.433Z,0
2017-09-07T04:32:42.086Z,0
2017-09-07T04:33:51.367Z,0
2017-09-07T04:35:00.643Z,0
2017-09-07T04:36:09.907Z,0
2017-09-07T04:37:18.863Z,0
2017-09-07T04:38:27.510Z,0
2017-09-07T04:39:36.776Z,0
2017-09-07T04:40:46.048Z,0
2017-09-07T04:41:55.007Z,0
2017-09-07T04:43:03.960Z,0
2017-09-07T04:44:12.917Z,0
2017-09-07T04:45:22.513Z,0
2017-09-07T04:46:31.783Z,0
2017-09-07T04:47:40.432Z,0
2017-09-07T04:48:49.696Z,0
2017-09-07T04:49:59.289Z,0
2017-09-07T04:51:08.555Z,0
2017-09-07T04:52:17.510Z,0
2017-09-07T04:53:27.099Z,0
2017-09-07T04:54:36.405Z,0
2017-09-07T04:55:46.322Z,0
2017-09-07T04:56:54.963Z,0
2017-09-07T04:58:04.255Z,0
2017-09-07T04:59:13.217Z,0
2017-09-07T05:00:22.174Z,0
2017-09-07T05:01:31.444Z,0
2017-09-07T05:02:40.730Z,0
2017-09-07T05:03:50.008Z,0
2017-09-07T05:04:58.968Z,0
2017-09-07T05:06:07.936Z,0
2017-09-07T05:07:16.901Z,0
2017-09-07T05:08:26.182Z,0
2017-09-07T05:09:35.773Z,0
2017-09-07T05:10:44.417Z,0
2017-09-07T05:11:53.691Z,0
2017-09-07T05:13:02.651Z,0
2017-09-07T05:14:11.926Z,0
2017-09-07T05:15:21.210Z,0
2017-09-07T05:16:30.478Z,0
2017-09-07T05:17:39.128Z,0
2017-09-07T05:18:48.100Z,0
2017-09-07T05:19:57.381Z,0
2017-09-07T05:21:06.339Z,0
2017-09-07T05:22:15.312Z,0
2017-09-07T05:23:24.271Z,0
2017-09-07T05:24:33.233Z,0
2017-09-07T05:25:42.503Z,0
2017-09-07T05:26:51.782Z,0
2017-09-07T05:28:01.049Z,0
2017-09-07T05:29:10.339Z,0
2017-09-07T05:30:19.293Z,0
2017-09-07T05:31:27.936Z,0
2017-09-07T05:32:36.899Z,0
2017-09-07T05:33:45.542Z,5
2017-09-07T05:34:55.133Z,5
2017-09-07T05:36:04.418Z,5
2017-09-07T05:37:13.379Z,5
2017-09-07T05:38:22.653Z,5
2017-09-07T05:39:31.610Z,5
2017-09-07T05:40:40.587Z,5
2017-09-07T05:41:49.866Z,5
2017-09-07T05:42:59.459Z,5
2017-09-07T05:44:09.056Z,5
2017-09-07T05:45:18.347Z,5
2017-09-07T05:46:27.313Z,5
2017-09-07T05:47:36.609Z,5
2017-09-07T05:48:45.894Z,5
2017-09-07T05:49:54.853Z,5
2017-09-07T05:51:03.497Z,5
2017-09-07T05:52:12.142Z,10
2017-09-07T05:53:21.424Z,10
2017-09-07T05:54:30.708Z,10
2017-09-07T05:55:39.662Z,10
2017-09-07T05:56:48.322Z,10
2017-09-07T05:57:57.601Z,10
2017-09-07T05:59:06.271Z,10
2017-09-07T06:00:14.920Z,10
2017-09-07T06:01:24.885Z,15
2017-09-07T06:02:34.163Z,15
2017-09-07T06:03:43.458Z,15
2017-09-07T06:04:52.116Z,15
2017-09-07T06:06:00.784Z,15
2017-09-07T06:07:10.077Z,15
2017-09-07T06:08:19.355Z,20
2017-09-07T06:09:28.323Z,20
2017-09-07T06:10:36.965Z,20
2017-09-07T06:11:46.559Z,20
2017-09-07T06:12:55.843Z,20
2017-09-07T06:14:04.843Z,20
2017-09-07T06:15:13.813Z,20
2017-09-07T06:16:22.800Z,20
2017-09-07T06:17:31.763Z,20
2017-09-07T06:18:40.720Z,20
2017-09-07T06:19:49.695Z,20
2017-09-07T06:20:59.592Z,20
2017-09-07T06:22:08.252Z,15
2017-09-07T06:23:17.218Z,15
2017-09-07T06:24:26.191Z,15
2017-09-07T06:25:35.787Z,15
2017-09-07T06:26:44.773Z,15
2017-09-07T06:27:54.460Z,15
2017-09-07T06:29:03.130Z,15
2017-09-07T06:30:11.801Z,15
2017-09-07T06:31:21.077Z,15
2017-09-07T06:32:30.033Z,15
2017-09-07T06:33:39.609Z,15
2017-09-07T06:34:48.908Z,15
2017-09-07T06:35:57.873Z,15
2017-09-07T06:37:06.864Z,15
2017-09-07T06:38:15.512Z,15
2017-09-07T06:39:24.812Z,20
2017-09-07T06:40:33.785Z,20
2017-09-07T06:41:42.763Z,15
2017-09-07T06:42:52.680Z,15
2017-09-07T06:44:01.962Z,20
2017-09-07T06:45:11.236Z,20
2017-09-07T06:46:20.513Z,20
2017-09-07T06:47:29.169Z,20
2017-09-07T06:48:37.823Z,20
2017-09-07T06:49:47.121Z,15
2017-09-07T06:50:56.713Z,15
2017-09-07T06:52:06.616Z,15
2017-09-07T06:53:15.580Z,15
2017-09-07T06:54:24.564Z,15
2017-09-07T06:55:33.576Z,15
2017-09-07T06:56:42.868Z,15
2017-09-07T06:57:52.471Z,15
2017-09-07T06:59:01.113Z,15
2017-09-07T07:00:10.728Z,15
2017-09-07T07:01:20.641Z,10
2017-09-07T07:02:29.922Z,10
2017-09-07T07:03:38.895Z,10
2017-09-07T07:04:47.563Z,10
2017-09-07T07:05:56.912Z,10
2017-09-07T07:07:06.215Z,10
2017-09-07T07:08:15.220Z,10
2017-09-07T07:09:23.894Z,10
2017-09-07T07:10:32.837Z,10
2017-09-07T07:11:41.802Z,10
2017-09-07T07:12:51.473Z,10
2017-09-07T07:14:00.465Z,10
2017-09-07T07:15:09.189Z,15
2017-09-07T07:16:18.488Z,15
2017-09-07T07:17:28.092Z,15
2017-09-07T07:18:36.741Z,15
2017-09-07T07:19:45.418Z,15
2017-09-07T07:20:54.738Z,15
2017-09-07T07:22:03.467Z,10
2017-09-07T07:23:12.239Z,10
2017-09-07T07:24:20.914Z,10
2017-09-07T07:25:30.215Z,10
2017-09-07T07:26:39.514Z,10
2017-09-07T07:27:48.837Z,10
2017-09-07T07:28:57.506Z,10
2017-09-07T07:30:06.791Z,5
2017-09-07T07:31:15.790Z,10
2017-09-07T07:32:24.453Z,10
2017-09-07T07:33:33.110Z,10
2017-09-07T07:34:42.418Z,15
2017-09-07T07:35:51.752Z,15
2017-09-07T07:37:00.721Z,15
2017-09-07T07:38:09.693Z,15
2017-09-07T07:39:18.977Z,15
2017-09-07T07:40:27.656Z,15
2017-09-07T07:41:37.289Z,15
2017-09-07T07:42:46.887Z,15
2017-09-07T07:43:55.549Z,15
2017-09-07T07:45:04.513Z,15
2017-09-07T07:46:13.482Z,15
2017-09-07T07:47:22.763Z,15
2017-09-07T07:48:31.723Z,20
2017-09-07T07:49:40.692Z,20
2017-09-07T07:50:49.352Z,20
2017-09-07T07:51:58.310Z,20
2017-09-07T07:53:06.975Z,25
2017-09-07T07:54:15.951Z,25
2017-09-07T07:55:25.562Z,30
2017-09-07T07:56:34.539Z,35
2017-09-07T07:57:43.504Z,35
2017-09-07T07:58:52.476Z,35
2017-09-07T08:00:01.446Z,35
2017-09-07T08:01:10.415Z,40
2017-09-07T08:02:19.385Z,40
2017-09-07T08:03:28.659Z,35
2017-09-07T08:04:37.693Z,30
2017-09-07T08:05:46.356Z,30
2017-09-07T08:06:55.683Z,30
2017-09-07T08:08:04.656Z,30
2017-09-07T08:09:14.261Z,35
2017-09-07T08:10:23.275Z,35
2017-09-07T08:11:31.929Z,30
2017-09-07T08:12:40.907Z,30
2017-09-07T08:13:50.205Z,25
2017-09-07T08:14:59.178Z,25
2017-09-07T08:16:08.155Z,25
2017-09-07T08:17:17.471Z,20
2017-09-07T08:18:26.755Z,20
2017-09-07T08:19:36.033Z,25
2017-09-07T08:20:45.004Z,25
2017-09-07T08:21:53.969Z,30
2017-09-07T08:23:03.267Z,30
2017-09-07T08:24:12.573Z,25
2017-09-07T08:25:21.539Z,20
2017-09-07T08:26:30.511Z,15
2017-09-07T08:27:39.161Z,15
2017-09-07T08:28:48.135Z,20
2017-09-07T08:29:57.107Z,20
2017-09-07T08:31:05.752Z,20
2017-09-07T08:32:14.717Z,20
2017-09-07T08:33:24.090Z,20
2017-09-07T08:34:33.063Z,20
2017-09-07T08:35:41.737Z,20
2017-09-07T08:36:50.714Z,20
2017-09-07T08:38:00.323Z,25
2017-09-07T08:39:09.608Z,30
2017-09-07T08:40:18.902Z,30
2017-09-07T08:41:27.560Z,25
2017-09-07T08:42:36.273Z,25
2017-09-07T08:43:45.552Z,20
2017-09-07T08:44:54.519Z,15
2017-09-07T08:46:03.813Z,15
2017-09-07T08:47:12.806Z,15
2017-09-07T08:48:22.081Z,20
2017-09-07T08:49:31.049Z,15
2017-09-07T08:50:40.332Z,15
2017-09-07T08:51:49.616Z,15
2017-09-07T08:52:58.583Z,15
2017-09-07T08:54:07.868Z,15
2017-09-07T08:55:17.135Z,15
2017-09-07T08:56:25.789Z,20
2017-09-07T08:57:34.749Z,20
2017-09-07T08:58:43.714Z,20
2017-09-07T08:59:52.364Z,25
2017-09-07T09:01:01.638Z,25
2017-09-07T09:02:10.602Z,20
2017-09-07T09:03:19.569Z,20
2017-09-07T09:04:28.539Z,20
2017-09-07T09:05:37.821Z,25
2017-09-07T09:06:47.437Z,25
2017-09-07T09:07:56.719Z,35
2017-09-07T09:09:06.637Z,35
2017-09-07T09:10:15.304Z,40
2017-09-07T09:11:24.581Z,45
2017-09-07T09:12:33.576Z,45
2017-09-07T09:13:42.549Z,50
2017-09-07T09:14:51.839Z,55
2017-09-07T09:16:00.790Z,55
2017-09-07T09:17:09.772Z,55
2017-09-07T09:18:18.736Z,60
2017-09-07T09:19:27.409Z,55
2017-09-07T09:20:36.061Z,50
2017-09-07T09:21:45.999Z,45
2017-09-07T09:22:55.615Z,45
2017-09-07T09:24:04.986Z,40
2017-09-07T09:25:14.270Z,40
2017-09-07T09:26:22.945Z,45
2017-09-07T09:27:31.903Z,50
2017-09-07T09:28:40.557Z,50
2017-09-07T09:29:50.152Z,50
2017-09-07T09:30:59.119Z,50
2017-09-07T09:32:07.770Z,45
2017-09-07T09:33:17.076Z,50
2017-09-07T09:34:25.721Z,50
2017-09-07T09:35:34.376Z,45
2017-09-07T09:36:43.673Z,40
2017-09-07T09:37:52.657Z,40
2017-09-07T09:39:01.946Z,40
2017-09-07T09:40:11.271Z,50
2017-09-07T09:41:20.584Z,50
2017-09-07T09:42:29.898Z,45
2017-09-07T09:43:38.547Z,40
2017-09-07T09:44:47.515Z,40
2017-09-07T09:45:57.109Z,40
2017-09-07T09:47:06.717Z,35
2017-09-07T09:48:15.390Z,35
2017-09-07T09:49:24.755Z,30
2017-09-07T09:50:33.735Z,30
2017-09-07T09:51:43.016Z,30
2017-09-07T09:52:52.304Z,30
2017-09-07T09:54:01.591Z,30
2017-09-07T09:55:10.891Z,30
2017-09-07T09:56:19.861Z,30
2017-09-07T09:57:29.142Z,30
2017-09-07T09:58:37.821Z,35
2017-09-07T09:59:46.788Z,45
2017-09-07T10:00:55.760Z,50
2017-09-07T10:02:04.735Z,55
2017-09-07T10:03:14.341Z,60
2017-09-07T10:04:23.013Z,65
2017-09-07T10:05:32.614Z,65
2017-09-07T10:06:42.131Z,60
2017-09-07T10:07:51.413Z,55
2017-09-07T10:09:00.383Z,55
2017-09-07T10:10:09.986Z,50
2017-09-07T10:11:18.960Z,50
2017-09-07T10:12:27.917Z,50
2017-09-07T10:13:36.572Z,50
2017-09-07T10:14:45.558Z,50
2017-09-07T10:15:54.250Z,55
2017-09-07T10:17:03.857Z,60
2017-09-07T10:18:39.147Z,65
2017-09-07T10:19:48.731Z,70
2017-09-07T10:20:58.022Z,70
2017-09-07T10:22:07.991Z,70
2017-09-07T10:23:16.640Z,65
2017-09-07T10:24:25.923Z,65
2017-09-07T10:25:34.581Z,60
2017-09-07T10:26:43.573Z,60
2017-09-07T10:27:52.540Z,60
2017-09-07T10:29:01.507Z,65
2017-09-07T10:30:11.117Z,60
2017-09-07T10:31:20.095Z,60
2017-09-07T10:32:29.373Z,60
2017-09-07T10:33:38.036Z,60
2017-09-07T10:34:47.312Z,65
2017-09-07T10:35:56.604Z,70
2017-09-07T10:37:05.253Z,65
2017-09-07T10:38:14.526Z,60
2017-09-07T10:39:23.845Z,60
2017-09-07T10:40:33.141Z,55
2017-09-07T10:41:42.430Z,45
2017-09-07T10:42:51.401Z,50
2017-09-07T10:44:01.020Z,60
2017-09-07T10:45:10.947Z,60
2017-09-07T10:46:20.236Z,55
2017-09-07T10:47:29.846Z,50
2017-09-07T10:48:38.812Z,45
2017-09-07T10:49:47.852Z,45
2017-09-07T10:50:56.516Z,45
2017-09-07T10:52:06.114Z,50
2017-09-07T10:53:15.405Z,50
2017-09-07T10:54:24.690Z,45
2017-09-07T10:55:34.294Z,40
2017-09-07T10:56:43.280Z,40
2017-09-07T10:57:52.260Z,50
2017-09-07T10:59:01.579Z,50
2017-09-07T11:00:10.550Z,50
2017-09-07T11:01:19.882Z,50
2017-09-07T11:02:29.177Z,50
2017-09-07T11:03:38.787Z,55
2017-09-07T11:04:47.752Z,55
2017-09-07T11:05:57.666Z,60
2017-09-07T11:07:06.954Z,60
2017-09-07T11:08:15.947Z,60
2017-09-07T11:09:25.253Z,50
2017-09-07T11:10:34.229Z,50
2017-09-07T11:11:43.516Z,45
2017-09-07T11:12:52.166Z,40
2017-09-07T11:14:00.828Z,30
2017-09-07T11:15:10.099Z,30
2017-09-07T11:16:18.751Z,40
2017-09-07T11:17:27.710Z,50
2017-09-07T11:18:36.707Z,45
2017-09-07T11:19:45.994Z,45
2017-09-07T11:20:55.615Z,45
2017-09-07T11:22:04.899Z,40
2017-09-07T11:23:14.190Z,40
2017-09-07T11:24:23.803Z,35
2017-09-07T11:25:33.402Z,25
2017-09-07T11:26:43.002Z,20
2017-09-07T11:27:51.977Z,20
2017-09-07T11:29:00.946Z,25
2017-09-07T11:30:10.224Z,40
2017-09-07T11:31:19.196Z,50
2017-09-07T11:32:28.487Z,45
2017-09-07T11:33:37.775Z,40
2017-09-07T11:34:46.741Z,40
2017-09-07T11:35:55.719Z,40
2017-09-07T11:37:04.690Z,40
2017-09-07T11:38:13.656Z,50
2017-09-07T11:39:22.948Z,60
2017-09-07T11:40:31.936Z,55
2017-09-07T11:41:40.587Z,50
2017-09-07T11:42:49.898Z,50
2017-09-07T11:43:59.819Z,50
2017-09-07T11:45:09.111Z,50
2017-09-07T11:46:18.090Z,45
2017-09-07T11:47:27.354Z,40
2017-09-07T11:48:36.951Z,35
2017-09-07T11:49:45.959Z,40
2017-09-07T11:50:54.956Z,35
2017-09-07T11:52:03.622Z,35
2017-09-07T11:53:12.906Z,35
2017-09-07T11:54:21.554Z,35
2017-09-07T11:55:30.523Z,35
2017-09-07T11:56:39.812Z,45
2017-09-07T11:57:49.084Z,50
2017-09-07T11:58:58.366Z,55
2017-09-07T12:00:07.643Z,60
2017-09-07T12:01:16.929Z,65
2017-09-07T12:02:26.517Z,65
2017-09-07T12:03:36.127Z,65
2017-09-07T12:04:45.120Z,60
2017-09-07T12:05:54.407Z,55
2017-09-07T12:07:03.376Z,55
2017-09-07T12:08:12.347Z,50
2017-09-07T12:09:21.635Z,45
2017-09-07T12:10:30.607Z,45
2017-09-07T12:11:39.259Z,45
2017-09-07T12:12:48.236Z,40
2017-09-07T12:13:57.836Z,40
2017-09-07T12:15:06.804Z,40
2017-09-07T12:16:16.084Z,30
2017-09-07T12:17:25.391Z,25
2017-09-07T12:18:34.374Z,25
2017-09-07T12:19:43.030Z,25
2017-09-07T12:20:52.013Z,30
2017-09-07T12:22:01.610Z,35
2017-09-07T12:23:10.592Z,35
2017-09-07T12:24:19.257Z,35
2017-09-07T12:25:28.545Z,30
2017-09-07T12:26:37.836Z,25
2017-09-07T12:27:46.498Z,20
2017-09-07T12:28:55.157Z,20
2017-09-07T12:30:04.133Z,20
2017-09-07T12:31:12.800Z,25
2017-09-07T12:32:21.507Z,30
2017-09-07T12:33:30.826Z,30
2017-09-07T12:34:40.905Z,35
2017-09-07T12:35:49.882Z,35
2017-09-07T12:36:59.161Z,35
2017-09-07T12:38:08.445Z,35
2017-09-07T12:39:17.407Z,35
2017-09-07T12:40:26.378Z,25
2017-09-07T12:41:35.343Z,25
2017-09-07T12:42:44.004Z,25
2017-09-07T12:43:53.924Z,30
2017-09-07T12:45:02.574Z,30
2017-09-07T12:46:11.539Z,30
2017-09-07T12:47:20.202Z,35
2017-09-07T12:48:28.847Z,40
2017-09-07T12:49:38.504Z,40
2017-09-07T12:50:47.479Z,45
2017-09-07T12:51:56.457Z,40
2017-09-07T12:53:06.067Z,40
2017-09-07T12:54:15.392Z,40
2017-09-07T12:55:24.369Z,35
2017-09-07T12:56:33.333Z,35
2017-09-07T12:57:43.925Z,40
2017-09-07T12:58:52.900Z,40
2017-09-07T13:00:01.876Z,40
2017-09-07T13:01:10.549Z,40
2017-09-07T13:02:20.163Z,40
2017-09-07T13:03:29.119Z,40
2017-09-07T13:04:38.092Z,40
2017-09-07T13:05:47.070Z,40
2017-09-07T13:06:56.033Z,40
2017-09-07T13:08:05.317Z,40
2017-09-07T13:09:13.978Z,40
2017-09-07T13:10:23.312Z,35
2017-09-07T13:11:32.596Z,35
2017-09-07T13:12:41.258Z,35
2017-09-07T13:13:50.544Z,35
2017-09-07T13:15:00.155Z,25
2017-09-07T13:16:09.125Z,20
2017-09-07T13:17:18.408Z,20
2017-09-07T13:18:27.381Z,25
2017-09-07T13:19:36.359Z,35
2017-09-07T13:20:45.655Z,35
2017-09-07T13:21:54.942Z,30
2017-09-07T13:23:04.242Z,25
2017-09-07T13:24:13.221Z,25
2017-09-07T13:25:22.201Z,30
2017-09-07T13:26:31.499Z,35
2017-09-07T13:27:40.485Z,35
2017-09-07T13:28:49.461Z,35
2017-09-07T13:29:58.449Z,35
2017-09-07T13:31:08.050Z,35
2017-09-07T13:32:17.344Z,35
2017-09-07T13:33:26.659Z,35
2017-09-07T13:34:35.963Z,35
2017-09-07T13:35:44.949Z,35
2017-09-07T13:36:54.250Z,35
2017-09-07T13:38:03.217Z,35
2017-09-07T13:39:12.197Z,30
2017-09-07T13:40:20.852Z,30
2017-09-07T13:41:30.135Z,35
2017-09-07T13:42:39.098Z,35
2017-09-07T13:43:48.068Z,40
2017-09-07T13:44:57.039Z,35
2017-09-07T13:46:06.641Z,35
2017-09-07T13:47:15.601Z,35
2017-09-07T13:48:24.591Z,30
2017-09-07T13:49:34.183Z,25
2017-09-07T13:50:42.852Z,20
2017-09-07T13:51:52.156Z,20
2017-09-07T13:53:00.805Z,20
2017-09-07T13:54:09.772Z,20
2017-09-07T13:55:18.742Z,25
2017-09-07T13:56:27.392Z,25
2017-09-07T13:57:36.052Z,20
2017-09-07T13:58:44.710Z,20
2017-09-07T13:59:53.695Z,15
2017-09-07T14:01:02.679Z,15
2017-09-07T14:02:11.335Z,10
2017-09-07T14:03:19.997Z,10
2017-09-07T14:04:28.959Z,10
2017-09-07T14:05:37.936Z,10
2017-09-07T14:06:46.937Z,10
2017-09-07T14:07:55.596Z,10
2017-09-07T14:09:04.249Z,15
2017-09-07T14:10:13.877Z,15
2017-09-07T14:11:22.850Z,15
2017-09-07T14:12:31.827Z,15
2017-09-07T14:13:41.424Z,15
2017-09-07T14:14:50.410Z,15
2017-09-07T14:15:59.480Z,20
2017-09-07T14:17:09.410Z,20
2017-09-07T14:18:18.418Z,15
2017-09-07T14:19:27.067Z,15
2017-09-07T14:20:36.036Z,15
2017-09-07T14:21:45.322Z,15
2017-09-07T14:22:54.612Z,15
2017-09-07T14:24:03.940Z,15
2017-09-07T14:25:13.220Z,15
2017-09-07T14:26:22.200Z,10
2017-09-07T14:27:31.484Z,10
2017-09-07T14:28:40.461Z,10
2017-09-07T14:29:49.436Z,15
2017-09-07T14:30:58.715Z,15
2017-09-07T14:32:07.998Z,20
2017-09-07T14:33:16.659Z,20
2017-09-07T14:34:25.318Z,25
2017-09-07T14:35:34.288Z,25
2017-09-07T14:36:43.504Z,25
2017-09-07T14:37:52.472Z,20
2017-09-07T14:39:01.444Z,20
2017-09-07T14:40:10.742Z,15
2017-09-07T14:41:19.718Z,10
2017-09-07T14:42:29.320Z,10
2017-09-07T14:43:38.302Z,5
2017-09-07T14:44:47.258Z,5
2017-09-07T14:45:56.235Z,5
2017-09-07T14:47:05.222Z,5
2017-09-07T14:48:14.191Z,5
2017-09-07T14:49:23.473Z,5
2017-09-07T14:50:32.148Z,5
2017-09-07T14:51:41.441Z,0
2017-09-07T14:52:51.041Z,0
2017-09-07T14:53:59.699Z,0
2017-09-07T14:55:09.616Z,0
2017-09-07T14:56:18.905Z,0
2017-09-07T14:57:28.497Z,0
2017-09-07T14:58:37.183Z,0
2017-09-07T14:59:46.158Z,0
2017-09-07T15:00:55.134Z,0
2017-09-07T15:02:04.130Z,0
2017-09-07T15:03:13.129Z,0
2017-09-07T15:04:22.745Z,0
2017-09-07T15:05:31.712Z,0
2017-09-07T15:06:40.699Z,0
2017-09-07T15:07:49.366Z,0
2017-09-07T15:08:58.028Z,0
2017-09-07T15:10:06.686Z,0
2017-09-07T15:11:16.196Z,0
2017-09-07T15:12:25.234Z,0
2017-09-07T15:13:34.201Z,0
2017-09-07T15:14:43.511Z,0
2017-09-07T15:15:52.789Z,0
2017-09-07T15:17:02.392Z,0
2017-09-07T15:18:11.376Z,0
2017-09-07T15:19:20.035Z,0
2017-09-07T15:20:29.326Z,0
2017-09-07T15:21:38.304Z,0
2017-09-07T15:22:46.949Z,0
2017-09-07T15:23:55.933Z,0
2017-09-07T15:25:05.538Z,0
2017-09-07T15:26:14.501Z,0
2017-09-07T15:27:23.481Z,0
2017-09-07T15:28:32.767Z,0
2017-09-07T15:29:41.424Z,0
2017-09-07T15:30:50.710Z,0
2017-09-07T15:31:59.367Z,0
2017-09-07T15:33:08.671Z,0
2017-09-07T15:34:17.640Z,0
2017-09-07T15:35:26.621Z,0
2017-09-07T15:36:35.592Z,5
2017-09-07T15:37:44.889Z,5
2017-09-07T15:38:54.491Z,5
2017-09-07T15:40:03.455Z,5
2017-09-07T15:41:12.748Z,5
2017-09-07T15:42:22.046Z,5
2017-09-07T15:43:30.706Z,5
2017-09-07T15:44:40.006Z,5
2017-09-07T15:45:48.652Z,5
2017-09-07T15:46:57.308Z,5
2017-09-07T15:48:06.270Z,5
2017-09-07T15:49:15.253Z,5
2017-09-07T15:50:24.221Z,5
2017-09-07T15:51:33.880Z,5
2017-09-07T15:52:42.868Z,5
2017-09-07T15:53:51.895Z,5
2017-09-07T15:55:00.547Z,5
2017-09-07T15:56:10.139Z,5
2017-09-07T15:57:19.105Z,5
2017-09-07T15:58:28.073Z,5
2017-09-07T15:59:37.029Z,5
2017-09-07T16:00:45.685Z,5
2017-09-07T16:01:54.964Z,5
2017-09-07T16:03:03.608Z,5
2017-09-07T16:04:12.274Z,5
2017-09-07T16:05:21.870Z,5
2017-09-07T16:06:31.303Z,5
2017-09-07T16:07:39.964Z,5
2017-09-07T16:08:49.259Z,10
2017-09-07T16:09:58.539Z,10
2017-09-07T16:11:07.173Z,10
2017-09-07T16:12:15.828Z,5
2017-09-07T16:13:25.130Z,5
2017-09-07T16:14:34.110Z,5
2017-09-07T16:15:42.775Z,5
2017-09-07T16:16:51.435Z,5
2017-09-07T16:18:00.100Z,0
2017-09-07T16:19:09.057Z,0
2017-09-07T16:20:18.656Z,0
2017-09-07T16:21:27.941Z,5
2017-09-07T16:22:36.930Z,5
2017-09-07T16:23:46.221Z,5
2017-09-07T16:24:55.190Z,5
2017-09-07T16:26:04.496Z,5
2017-09-07T16:27:13.147Z,5
2017-09-07T16:28:23.083Z,5
2017-09-07T16:29:32.680Z,5
2017-09-07T16:30:42.275Z,5
2017-09-07T16:31:51.555Z,5
2017-09-07T16:33:00.837Z,5
2017-09-07T16:34:10.775Z,5
2017-09-07T16:35:20.057Z,5
2017-09-07T16:36:29.033Z,5
2017-09-07T16:37:38.307Z,5
2017-09-07T16:38:46.969Z,5
2017-09-07T16:39:55.933Z,0
2017-09-07T16:41:04.645Z,0
2017-09-07T16:42:13.616Z,0
2017-09-07T16:43:22.907Z,0